Five Points, Pennsylvania
Current Conditions -  °F | °C
As of 2:54 PM on Thursday 29 Jan 2015 (Local Time) from KRDG Reporting Station
Unknown Precip Unknown Precip  
Wind Chill: 23°   Ceiling: 9500
Heat Index: 31°   Visibility: 10mi
Dew Point:   Wind: 9mph
Humidity: 40%   Direction: 120°ESE
Pressure: 30.11"   Gusts: NA
Location:  40.3351°N, 75.8521°W
Report Text: KRDG 291954Z 12008KT 10SM UP OVC095 M01/M13 A3011 RMK AO2 UPB50 SLP205 P0000 T10061128
Loading
Personal Weather Stations






























Interactive Weather Map New forecast layout! Learn more

10-Day Weather Forecast

Advertisements
Track Severe Weather on mobile